Terminal Aerodrome Forecast
Issued by NWS

Home | Current Version | Previous Version | Text Only | Print | Product List | Glossary On
Versions: 1 2 3 4 5 6 7 8 9 10 11 12 13
000
FTUS43 KMQT 241722
TAFCMX
TAF
KCMX 241722Z 2418/2518 25011G19KT P6SM -SHRA BKN080
     FM242000 26013G22KT 4SM -SHRA OVC025
     FM242300 28017G25KT P6SM VCSH OVC020
     FM250300 29020G29KT P6SM BKN020
     FM250800 30021G29KT 5SM -SHSN BLSN BKN035
     FM251700 31014G23KT P6SM BKN030=

USA.gov is the U.S. government's official web portal to all federal, state and local government web resources and services.